sensor_id;sensor_type;location;lat;lon;timestamp;temperature;humidity
23120;DHT22;11729;50.836;4.330;2022-07-09T00:01:40;20.50;99.90
23120;DHT22;11729;50.836;4.330;2022-07-09T00:04:05;20.50;99.90
23120;DHT22;11729;50.836;4.330;2022-07-09T00:06:31;20.40;99.90
23120;DHT22;11729;50.836;4.330;2022-07-09T00:08:57;20.40;99.90
23120;DHT22;11729;50.836;4.330;2022-07-09T00:11:23;20.40;99.90
23120;DHT22;11729;50.836;4.330;2022-07-09T00:13:49;20.50;99.90
23120;DHT22;11729;50.836;4.330;2022-07-09T00:16:15;20.40;99.90
23120;DHT22;11729;50.836;4.330;2022-07-09T00:18:40;20.40;99.90
23120;DHT22;11729;50.836;4.330;2022-07-09T00:21:06;20.30;99.90
23120;DHT22;11729;50.836;4.330;2022-07-09T00:23:31;20.20;99.90
23120;DHT22;11729;50.836;4.330;2022-07-09T00:25:57;20.10;99.90
23120;DHT22;11729;50.836;4.330;2022-07-09T00:28:23;20.20;99.90
23120;DHT22;11729;50.836;4.330;2022-07-09T00:30:48;20.10;99.90
23120;DHT22;11729;50.836;4.330;2022-07-09T00:33:14;20.00;99.90
23120;DHT22;11729;50.836;4.330;2022-07-09T00:35:40;19.90;99.90
23120;DHT22;11729;50.836;4.330;2022-07-09T00:38:05;19.80;99.90
23120;DHT22;11729;50.836;4.330;2022-07-09T00:40:31;19.90;99.90
23120;DHT22;11729;50.836;4.330;2022-07-09T00:42:57;20.00;99.90
23120;DHT22;11729;50.836;4.330;2022-07-09T00:45:22;20.10;99.90
23120;DHT22;11729;50.836;4.330;2022-07-09T00:47:48;20.00;99.90
23120;DHT22;11729;50.836;4.330;2022-07-09T00:50:14;19.90;99.90
23120;DHT22;11729;50.836;4.330;2022-07-09T00:52:40;19.80;99.90
23120;DHT22;11729;50.836;4.330;2022-07-09T00:55:06;19.80;99.90
23120;DHT22;11729;50.836;4.330;2022-07-09T00:57:34;19.80;99.90
23120;DHT22;11729;50.836;4.330;2022-07-09T01:00:01;19.70;99.90
23120;DHT22;11729;50.836;4.330;2022-07-09T01:02:27;19.60;99.90
23120;DHT22;11729;50.836;4.330;2022-07-09T01:04:53;19.60;99.90
23120;DHT22;11729;50.836;4.330;2022-07-09T01:07:18;19.60;99.90
23120;DHT22;11729;50.836;4.330;2022-07-09T01:09:44;19.60;99.90
23120;DHT22;11729;50.836;4.330;2022-07-09T01:12:10;19.60;99.90
23120;DHT22;11729;50.836;4.330;2022-07-09T01:14:35;19.60;99.90
23120;DHT22;11729;50.836;4.330;2022-07-09T01:17:03;19.60;99.90
23120;DHT22;11729;50.836;4.330;2022-07-09T01:19:30;19.60;99.90
23120;DHT22;11729;50.836;4.330;2022-07-09T01:21:57;19.60;99.90
23120;DHT22;11729;50.836;4.330;2022-07-09T01:24:23;19.60;99.90
23120;DHT22;11729;50.836;4.330;2022-07-09T01:26:49;19.60;99.90
23120;DHT22;11729;50.836;4.330;2022-07-09T01:29:15;19.50;99.90
23120;DHT22;11729;50.836;4.330;2022-07-09T01:31:41;19.50;99.90
23120;DHT22;11729;50.836;4.330;2022-07-09T01:34:06;19.40;99.90
23120;DHT22;11729;50.836;4.330;2022-07-09T01:36:32;19.50;99.90
23120;DHT22;11729;50.836;4.330;2022-07-09T01:38:59;19.50;99.90
23120;DHT22;11729;50.836;4.330;2022-07-09T01:41:24;19.60;99.90
23120;DHT22;11729;50.836;4.330;2022-07-09T01:43:50;19.70;99.90
23120;DHT22;11729;50.836;4.330;2022-07-09T01:46:16;19.70;99.90
23120;DHT22;11729;50.836;4.330;2022-07-09T01:48:41;19.60;99.90
23120;DHT22;11729;50.836;4.330;2022-07-09T01:51:08;19.60;99.90
23120;DHT22;11729;50.836;4.330;2022-07-09T01:53:35;19.60;99.90
23120;DHT22;11729;50.836;4.330;2022-07-09T01:56:08;19.60;99.90
23120;DHT22;11729;50.836;4.330;2022-07-09T01:58:34;19.60;99.90
23120;DHT22;11729;50.836;4.330;2022-07-09T02:01:00;19.50;99.90
23120;DHT22;11729;50.836;4.330;2022-07-09T02:03:26;19.40;99.90
23120;DHT22;11729;50.836;4.330;2022-07-09T02:05:51;19.30;99.90
23120;DHT22;11729;50.836;4.330;2022-07-09T02:08:17;19.30;99.90
23120;DHT22;11729;50.836;4.330;2022-07-09T02:10:43;19.30;99.90
23120;DHT22;11729;50.836;4.330;2022-07-09T02:13:08;19.30;99.90
23120;DHT22;11729;50.836;4.330;2022-07-09T02:15:34;19.30;99.90
23120;DHT22;11729;50.836;4.330;2022-07-09T02:18:00;19.30;99.90
23120;DHT22;11729;50.836;4.330;2022-07-09T02:20:26;19.30;99.90
23120;DHT22;11729;50.836;4.330;2022-07-09T02:22:51;19.20;99.90
23120;DHT22;11729;50.836;4.330;2022-07-09T02:25:17;19.20;99.90
23120;DHT22;11729;50.836;4.330;2022-07-09T02:27:43;19.10;99.90
23120;DHT22;11729;50.836;4.330;2022-07-09T02:30:09;19.10;99.90
23120;DHT22;11729;50.836;4.330;2022-07-09T02:32:35;19.10;99.90
23120;DHT22;11729;50.836;4.330;2022-07-09T02:35:02;19.10;99.90
23120;DHT22;11729;50.836;4.330;2022-07-09T02:37:28;19.10;99.90
23120;DHT22;11729;50.836;4.330;2022-07-09T02:39:53;19.30;99.90
23120;DHT22;11729;50.836;4.330;2022-07-09T02:42:19;19.30;99.90
23120;DHT22;11729;50.836;4.330;2022-07-09T02:44:44;19.20;99.90
23120;DHT22;11729;50.836;4.330;2022-07-09T02:47:10;19.30;99.90
23120;DHT22;11729;50.836;4.330;2022-07-09T02:49:35;19.20;99.90
23120;DHT22;11729;50.836;4.330;2022-07-09T02:52:01;19.30;99.90
23120;DHT22;11729;50.836;4.330;2022-07-09T02:54:28;19.30;99.90
23120;DHT22;11729;50.836;4.330;2022-07-09T02:56:53;19.20;99.90
23120;DHT22;11729;50.836;4.330;2022-07-09T02:59:19;19.30;99.90
23120;DHT22;11729;50.836;4.330;2022-07-09T03:01:44;19.30;99.90
23120;DHT22;11729;50.836;4.330;2022-07-09T03:04:10;19.20;99.90
23120;DHT22;11729;50.836;4.330;2022-07-09T03:06:36;19.20;99.90
23120;DHT22;11729;50.836;4.330;2022-07-09T03:09:03;19.20;99.90
23120;DHT22;11729;50.836;4.330;2022-07-09T03:11:28;19.20;99.90
23120;DHT22;11729;50.836;4.330;2022-07-09T03:13:54;19.20;99.90
23120;DHT22;11729;50.836;4.330;2022-07-09T03:16:20;19.10;99.90
23120;DHT22;11729;50.836;4.330;2022-07-09T03:18:45;19.00;99.90
23120;DHT22;11729;50.836;4.330;2022-07-09T03:21:11;19.00;99.90
23120;DHT22;11729;50.836;4.330;2022-07-09T03:23:37;19.10;99.90
23120;DHT22;11729;50.836;4.330;2022-07-09T03:26:05;19.10;99.90
23120;DHT22;11729;50.836;4.330;2022-07-09T03:28:30;19.10;99.90
23120;DHT22;11729;50.836;4.330;2022-07-09T03:30:56;19.00;99.90
23120;DHT22;11729;50.836;4.330;2022-07-09T03:33:22;19.00;99.90
23120;DHT22;11729;50.836;4.330;2022-07-09T03:35:48;18.90;99.90
23120;DHT22;11729;50.836;4.330;2022-07-09T03:38:13;18.90;99.90
23120;DHT22;11729;50.836;4.330;2022-07-09T03:40:39;18.80;99.90
23120;DHT22;11729;50.836;4.330;2022-07-09T03:43:05;18.90;99.90
23120;DHT22;11729;50.836;4.330;2022-07-09T03:45:30;18.90;99.90
23120;DHT22;11729;50.836;4.330;2022-07-09T03:47:56;18.80;99.90
23120;DHT22;11729;50.836;4.330;2022-07-09T03:50:22;18.80;99.90
23120;DHT22;11729;50.836;4.330;2022-07-09T03:52:47;18.80;99.90
23120;DHT22;11729;50.836;4.330;2022-07-09T03:55:13;18.80;99.90
23120;DHT22;11729;50.836;4.330;2022-07-09T03:57:38;18.80;99.90
23120;DHT22;11729;50.836;4.330;2022-07-09T04:00:05;18.90;99.90
23120;DHT22;11729;50.836;4.330;2022-07-09T04:02:32;18.90;99.90
23120;DHT22;11729;50.836;4.330;2022-07-09T04:04:57;18.80;99.90
23120;DHT22;11729;50.836;4.330;2022-07-09T04:07:24;18.70;99.90
23120;DHT22;11729;50.836;4.330;2022-07-09T04:09:52;18.70;99.90
23120;DHT22;11729;50.836;4.330;2022-07-09T04:12:19;18.70;99.90
23120;DHT22;11729;50.836;4.330;2022-07-09T04:14:44;18.70;99.90
23120;DHT22;11729;50.836;4.330;2022-07-09T04:17:10;18.80;99.90
23120;DHT22;11729;50.836;4.330;2022-07-09T04:19:36;18.90;99.90
23120;DHT22;11729;50.836;4.330;2022-07-09T04:22:02;19.00;99.90
23120;DHT22;11729;50.836;4.330;2022-07-09T04:24:28;19.00;99.90
23120;DHT22;11729;50.836;4.330;2022-07-09T04:26:53;19.00;99.90
23120;DHT22;11729;50.836;4.330;2022-07-09T04:29:19;19.10;99.90
23120;DHT22;11729;50.836;4.330;2022-07-09T04:31:45;19.10;99.90
23120;DHT22;11729;50.836;4.330;2022-07-09T04:34:10;19.20;99.90
23120;DHT22;11729;50.836;4.330;2022-07-09T04:36:36;19.10;99.90
23120;DHT22;11729;50.836;4.330;2022-07-09T04:39:02;19.10;99.90
23120;DHT22;11729;50.836;4.330;2022-07-09T04:41:28;19.10;99.90
23120;DHT22;11729;50.836;4.330;2022-07-09T04:43:54;19.00;99.90
23120;DHT22;11729;50.836;4.330;2022-07-09T04:46:19;19.00;99.90
23120;DHT22;11729;50.836;4.330;2022-07-09T04:48:47;18.90;99.90
23120;DHT22;11729;50.836;4.330;2022-07-09T04:51:13;18.90;99.90
23120;DHT22;11729;50.836;4.330;2022-07-09T04:53:39;18.80;99.90
23120;DHT22;11729;50.836;4.330;2022-07-09T04:56:04;18.80;99.90
23120;DHT22;11729;50.836;4.330;2022-07-09T04:58:32;18.90;99.90
23120;DHT22;11729;50.836;4.330;2022-07-09T05:00:58;18.80;99.90
23120;DHT22;11729;50.836;4.330;2022-07-09T05:03:24;18.90;99.90
23120;DHT22;11729;50.836;4.330;2022-07-09T05:05:50;19.00;99.90
23120;DHT22;11729;50.836;4.330;2022-07-09T05:08:17;19.10;99.90
23120;DHT22;11729;50.836;4.330;2022-07-09T05:10:42;19.10;99.90
23120;DHT22;11729;50.836;4.330;2022-07-09T05:13:08;19.20;99.90
23120;DHT22;11729;50.836;4.330;2022-07-09T05:15:34;19.20;99.90
23120;DHT22;11729;50.836;4.330;2022-07-09T05:17:59;19.30;99.90
23120;DHT22;11729;50.836;4.330;2022-07-09T05:20:25;19.50;99.90
23120;DHT22;11729;50.836;4.330;2022-07-09T05:22:51;19.60;99.90
23120;DHT22;11729;50.836;4.330;2022-07-09T05:25:17;19.70;99.90
23120;DHT22;11729;50.836;4.330;2022-07-09T05:27:44;19.80;99.90
23120;DHT22;11729;50.836;4.330;2022-07-09T05:30:11;19.90;99.90
23120;DHT22;11729;50.836;4.330;2022-07-09T05:32:39;19.90;99.90
23120;DHT22;11729;50.836;4.330;2022-07-09T05:35:05;19.90;99.90
23120;DHT22;11729;50.836;4.330;2022-07-09T05:37:31;20.00;99.90
23120;DHT22;11729;50.836;4.330;2022-07-09T05:39:57;20.20;99.90
23120;DHT22;11729;50.836;4.330;2022-07-09T05:42:23;20.40;99.90
23120;DHT22;11729;50.836;4.330;2022-07-09T05:44:49;20.60;99.90
23120;DHT22;11729;50.836;4.330;2022-07-09T05:47:15;20.60;99.90
23120;DHT22;11729;50.836;4.330;2022-07-09T05:49:41;20.70;99.90
23120;DHT22;11729;50.836;4.330;2022-07-09T05:52:06;21.30;99.90
23120;DHT22;11729;50.836;4.330;2022-07-09T05:54:32;22.80;99.90
23120;DHT22;11729;50.836;4.330;2022-07-09T05:56:58;24.40;99.90
23120;DHT22;11729;50.836;4.330;2022-07-09T05:59:23;26.10;99.90
23120;DHT22;11729;50.836;4.330;2022-07-09T06:01:49;27.30;99.90
23120;DHT22;11729;50.836;4.330;2022-07-09T06:04:14;28.80;99.90
23120;DHT22;11729;50.836;4.330;2022-07-09T06:06:40;30.10;97.60
23120;DHT22;11729;50.836;4.330;2022-07-09T06:09:06;31.10;93.90
23120;DHT22;11729;50.836;4.330;2022-07-09T06:11:32;32.00;90.50
23120;DHT22;11729;50.836;4.330;2022-07-09T06:13:58;32.80;86.80
23120;DHT22;11729;50.836;4.330;2022-07-09T06:16:23;33.00;83.30
23120;DHT22;11729;50.836;4.330;2022-07-09T06:18:49;33.60;79.10
23120;DHT22;11729;50.836;4.330;2022-07-09T06:21:14;34.40;75.60
23120;DHT22;11729;50.836;4.330;2022-07-09T06:23:40;35.20;73.10
23120;DHT22;11729;50.836;4.330;2022-07-09T06:26:06;35.40;69.60
23120;DHT22;11729;50.836;4.330;2022-07-09T06:28:31;35.80;66.90
23120;DHT22;11729;50.836;4.330;2022-07-09T06:30:57;36.20;65.00
23120;DHT22;11729;50.836;4.330;2022-07-09T06:33:23;36.60;63.30
23120;DHT22;11729;50.836;4.330;2022-07-09T06:35:49;36.80;62.40
23120;DHT22;11729;50.836;4.330;2022-07-09T06:38:14;37.10;60.70
23120;DHT22;11729;50.836;4.330;2022-07-09T06:40:40;37.40;59.50
23120;DHT22;11729;50.836;4.330;2022-07-09T06:43:05;37.40;58.00
23120;DHT22;11729;50.836;4.330;2022-07-09T06:45:32;37.40;57.70
23120;DHT22;11729;50.836;4.330;2022-07-09T06:47:58;37.70;57.00
23120;DHT22;11729;50.836;4.330;2022-07-09T06:50:23;37.50;56.20
23120;DHT22;11729;50.836;4.330;2022-07-09T06:52:49;37.50;56.70
23120;DHT22;11729;50.836;4.330;2022-07-09T06:55:15;37.70;56.10
23120;DHT22;11729;50.836;4.330;2022-07-09T06:57:40;38.00;55.40
23120;DHT22;11729;50.836;4.330;2022-07-09T07:00:06;38.10;54.40
23120;DHT22;11729;50.836;4.330;2022-07-09T07:02:32;38.10;54.10
23120;DHT22;11729;50.836;4.330;2022-07-09T07:04:58;37.50;54.90
23120;DHT22;11729;50.836;4.330;2022-07-09T07:07:23;37.20;55.50
23120;DHT22;11729;50.836;4.330;2022-07-09T07:09:49;37.10;56.10
23120;DHT22;11729;50.836;4.330;2022-07-09T07:12:15;36.10;56.80
23120;DHT22;11729;50.836;4.330;2022-07-09T07:14:40;35.30;57.00
23120;DHT22;11729;50.836;4.330;2022-07-09T07:17:07;35.00;58.70
23120;DHT22;11729;50.836;4.330;2022-07-09T07:19:32;34.20;60.30
23120;DHT22;11729;50.836;4.330;2022-07-09T07:21:58;33.80;61.90
23120;DHT22;11729;50.836;4.330;2022-07-09T07:24:24;32.60;63.70
23120;DHT22;11729;50.836;4.330;2022-07-09T07:26:49;31.80;65.50
23120;DHT22;11729;50.836;4.330;2022-07-09T07:29:15;32.20;66.80
23120;DHT22;11729;50.836;4.330;2022-07-09T07:31:41;32.40;66.30
23120;DHT22;11729;50.836;4.330;2022-07-09T07:34:06;32.80;64.90
23120;DHT22;11729;50.836;4.330;2022-07-09T07:36:32;32.70;65.70
23120;DHT22;11729;50.836;4.330;2022-07-09T07:38:59;33.10;66.30
23120;DHT22;11729;50.836;4.330;2022-07-09T07:41:25;33.80;63.80
23120;DHT22;11729;50.836;4.330;2022-07-09T07:43:51;34.50;63.30
23120;DHT22;11729;50.836;4.330;2022-07-09T07:46:16;35.10;61.60
23120;DHT22;11729;50.836;4.330;2022-07-09T07:48:42;35.10;61.00
23120;DHT22;11729;50.836;4.330;2022-07-09T07:51:09;34.80;60.80
23120;DHT22;11729;50.836;4.330;2022-07-09T07:53:35;34.10;62.30
23120;DHT22;11729;50.836;4.330;2022-07-09T07:56:04;33.00;64.70
23120;DHT22;11729;50.836;4.330;2022-07-09T07:58:30;32.90;69.30
23120;DHT22;11729;50.836;4.330;2022-07-09T08:00:56;33.90;65.50
23120;DHT22;11729;50.836;4.330;2022-07-09T08:03:22;35.10;61.60
23120;DHT22;11729;50.836;4.330;2022-07-09T08:05:47;35.70;59.40
23120;DHT22;11729;50.836;4.330;2022-07-09T08:08:13;36.70;59.90
23120;DHT22;11729;50.836;4.330;2022-07-09T08:10:39;37.00;55.30
23120;DHT22;11729;50.836;4.330;2022-07-09T08:13:05;37.20;54.20
23120;DHT22;11729;50.836;4.330;2022-07-09T08:15:30;37.60;54.00
23120;DHT22;11729;50.836;4.330;2022-07-09T08:17:56;37.50;53.90
23120;DHT22;11729;50.836;4.330;2022-07-09T08:20:22;37.70;52.50
23120;DHT22;11729;50.836;4.330;2022-07-09T08:22:47;37.60;52.20
23120;DHT22;11729;50.836;4.330;2022-07-09T08:25:13;37.90;52.00
23120;DHT22;11729;50.836;4.330;2022-07-09T08:27:39;37.50;52.50
23120;DHT22;11729;50.836;4.330;2022-07-09T08:30:05;37.80;53.50
23120;DHT22;11729;50.836;4.330;2022-07-09T08:32:31;37.70;53.60
23120;DHT22;11729;50.836;4.330;2022-07-09T08:34:57;37.90;53.90
23120;DHT22;11729;50.836;4.330;2022-07-09T08:37:22;37.90;53.30
23120;DHT22;11729;50.836;4.330;2022-07-09T08:39:48;38.30;52.40
23120;DHT22;11729;50.836;4.330;2022-07-09T08:42:13;38.90;52.10
23120;DHT22;11729;50.836;4.330;2022-07-09T08:44:40;39.30;51.40
23120;DHT22;11729;50.836;4.330;2022-07-09T08:47:12;39.00;50.30
23120;DHT22;11729;50.836;4.330;2022-07-09T08:49:39;40.00;51.20
23120;DHT22;11729;50.836;4.330;2022-07-09T08:52:06;40.50;50.30
23120;DHT22;11729;50.836;4.330;2022-07-09T08:54:32;40.40;51.40
23120;DHT22;11729;50.836;4.330;2022-07-09T08:57:05;40.40;49.40
23120;DHT22;11729;50.836;4.330;2022-07-09T08:59:34;40.70;48.90
23120;DHT22;11729;50.836;4.330;2022-07-09T09:02:04;40.70;48.30
23120;DHT22;11729;50.836;4.330;2022-07-09T09:04:30;40.10;48.70
23120;DHT22;11729;50.836;4.330;2022-07-09T09:06:55;39.70;49.20
23120;DHT22;11729;50.836;4.330;2022-07-09T09:09:21;40.00;47.40
23120;DHT22;11729;50.836;4.330;2022-07-09T09:11:50;39.80;47.30
23120;DHT22;11729;50.836;4.330;2022-07-09T09:14:22;38.70;49.60
23120;DHT22;11729;50.836;4.330;2022-07-09T09:16:48;38.70;51.00
23120;DHT22;11729;50.836;4.330;2022-07-09T09:19:14;39.00;49.70
23120;DHT22;11729;50.836;4.330;2022-07-09T09:21:40;38.50;49.40
23120;DHT22;11729;50.836;4.330;2022-07-09T09:24:06;38.20;50.10
23120;DHT22;11729;50.836;4.330;2022-07-09T09:26:31;38.10;50.80
23120;DHT22;11729;50.836;4.330;2022-07-09T09:29:01;38.30;50.70
23120;DHT22;11729;50.836;4.330;2022-07-09T09:31:28;37.60;51.00
23120;DHT22;11729;50.836;4.330;2022-07-09T09:36:34;37.50;52.60
23120;DHT22;11729;50.836;4.330;2022-07-09T09:39:20;37.40;52.70
23120;DHT22;11729;50.836;4.330;2022-07-09T09:41:53;37.30;52.50
23120;DHT22;11729;50.836;4.330;2022-07-09T09:44:20;36.60;54.20
23120;DHT22;11729;50.836;4.330;2022-07-09T09:46:47;37.70;54.40
23120;DHT22;11729;50.836;4.330;2022-07-09T09:49:16;38.40;51.90
23120;DHT22;11729;50.836;4.330;2022-07-09T09:51:46;39.10;51.80
23120;DHT22;11729;50.836;4.330;2022-07-09T09:54:16;38.20;51.40
23120;DHT22;11729;50.836;4.330;2022-07-09T09:56:43;38.30;52.60
23120;DHT22;11729;50.836;4.330;2022-07-09T09:59:10;37.60;52.40
23120;DHT22;11729;50.836;4.330;2022-07-09T10:01:35;37.00;54.60
23120;DHT22;11729;50.836;4.330;2022-07-09T10:04:01;36.80;55.30
23120;DHT22;11729;50.836;4.330;2022-07-09T10:06:27;36.00;56.20
23120;DHT22;11729;50.836;4.330;2022-07-09T10:08:54;35.00;58.60
23120;DHT22;11729;50.836;4.330;2022-07-09T10:11:21;34.50;61.00
23120;DHT22;11729;50.836;4.330;2022-07-09T10:13:54;34.20;61.00
23120;DHT22;11729;50.836;4.330;2022-07-09T10:16:40;33.40;64.20
23120;DHT22;11729;50.836;4.330;2022-07-09T10:19:06;33.50;65.20
23120;DHT22;11729;50.836;4.330;2022-07-09T10:21:40;33.60;67.30
23120;DHT22;11729;50.836;4.330;2022-07-09T10:24:08;33.90;65.00
23120;DHT22;11729;50.836;4.330;2022-07-09T10:26:43;34.50;65.10
23120;DHT22;11729;50.836;4.330;2022-07-09T10:29:25;34.50;61.00
23120;DHT22;11729;50.836;4.330;2022-07-09T10:31:54;34.10;62.90
23120;DHT22;11729;50.836;4.330;2022-07-09T10:37:11;32.90;65.60
23120;DHT22;11729;50.836;4.330;2022-07-09T10:39:36;32.30;69.00
23120;DHT22;11729;50.836;4.330;2022-07-09T10:44:33;32.90;66.60
23120;DHT22;11729;50.836;4.330;2022-07-09T10:46:59;32.70;68.20
23120;DHT22;11729;50.836;4.330;2022-07-09T10:49:26;32.50;68.90
23120;DHT22;11729;50.836;4.330;2022-07-09T10:51:56;32.70;70.90
23120;DHT22;11729;50.836;4.330;2022-07-09T10:54:26;32.90;66.80
23120;DHT22;11729;50.836;4.330;2022-07-09T10:56:53;32.80;65.30
23120;DHT22;11729;50.836;4.330;2022-07-09T10:59:21;33.20;66.90
23120;DHT22;11729;50.836;4.330;2022-07-09T11:01:46;33.80;67.70
23120;DHT22;11729;50.836;4.330;2022-07-09T11:04:26;33.80;67.30
23120;DHT22;11729;50.836;4.330;2022-07-09T11:06:52;33.80;65.60
23120;DHT22;11729;50.836;4.330;2022-07-09T11:09:19;33.30;67.60
23120;DHT22;11729;50.836;4.330;2022-07-09T11:11:45;33.30;70.30
23120;DHT22;11729;50.836;4.330;2022-07-09T11:14:12;33.60;66.40
23120;DHT22;11729;50.836;4.330;2022-07-09T11:16:38;33.50;65.40
23120;DHT22;11729;50.836;4.330;2022-07-09T11:19:17;32.60;66.20
23120;DHT22;11729;50.836;4.330;2022-07-09T11:21:44;31.40;72.00
23120;DHT22;11729;50.836;4.330;2022-07-09T11:24:18;30.60;74.70
23120;DHT22;11729;50.836;4.330;2022-07-09T11:26:45;30.40;75.10
23120;DHT22;11729;50.836;4.330;2022-07-09T11:29:12;29.90;75.80
23120;DHT22;11729;50.836;4.330;2022-07-09T11:31:51;29.20;78.90
23120;DHT22;11729;50.836;4.330;2022-07-09T11:34:18;29.00;80.00
23120;DHT22;11729;50.836;4.330;2022-07-09T11:36:46;29.00;79.90
23120;DHT22;11729;50.836;4.330;2022-07-09T11:39:28;29.30;79.80
23120;DHT22;11729;50.836;4.330;2022-07-09T11:41:54;30.20;78.20
23120;DHT22;11729;50.836;4.330;2022-07-09T11:47:11;30.60;74.30
23120;DHT22;11729;50.836;4.330;2022-07-09T11:49:42;29.70;78.90
23120;DHT22;11729;50.836;4.330;2022-07-09T11:52:23;30.10;79.50
23120;DHT22;11729;50.836;4.330;2022-07-09T11:57:34;31.10;73.70
23120;DHT22;11729;50.836;4.330;2022-07-09T12:00:00;31.20;73.20
23120;DHT22;11729;50.836;4.330;2022-07-09T12:02:36;31.40;71.40
23120;DHT22;11729;50.836;4.330;2022-07-09T12:05:07;31.50;68.70
23120;DHT22;11729;50.836;4.330;2022-07-09T12:07:33;30.90;70.50
23120;DHT22;11729;50.836;4.330;2022-07-09T12:10:05;30.50;72.00
23120;DHT22;11729;50.836;4.330;2022-07-09T12:12:33;29.40;75.20
23120;DHT22;11729;50.836;4.330;2022-07-09T12:14:59;28.60;78.20
23120;DHT22;11729;50.836;4.330;2022-07-09T12:17:27;28.40;79.30
23120;DHT22;11729;50.836;4.330;2022-07-09T12:19:54;28.90;78.80
23120;DHT22;11729;50.836;4.330;2022-07-09T12:22:20;29.60;78.30
23120;DHT22;11729;50.836;4.330;2022-07-09T12:24:46;30.00;77.80
23120;DHT22;11729;50.836;4.330;2022-07-09T12:27:12;30.00;75.50
23120;DHT22;11729;50.836;4.330;2022-07-09T12:29:38;29.80;73.70
23120;DHT22;11729;50.836;4.330;2022-07-09T12:32:04;29.10;75.20
23120;DHT22;11729;50.836;4.330;2022-07-09T12:34:30;28.90;78.40
23120;DHT22;11729;50.836;4.330;2022-07-09T12:36:56;28.40;81.00
23120;DHT22;11729;50.836;4.330;2022-07-09T12:39:22;29.10;83.60
23120;DHT22;11729;50.836;4.330;2022-07-09T12:41:47;29.90;77.40
23120;DHT22;11729;50.836;4.330;2022-07-09T12:44:13;29.70;75.40
23120;DHT22;11729;50.836;4.330;2022-07-09T12:46:38;29.20;78.20
23120;DHT22;11729;50.836;4.330;2022-07-09T12:49:04;28.60;80.10
23120;DHT22;11729;50.836;4.330;2022-07-09T12:51:29;27.60;82.90
23120;DHT22;11729;50.836;4.330;2022-07-09T12:53:55;27.50;84.90
23120;DHT22;11729;50.836;4.330;2022-07-09T12:56:21;27.40;82.90
23120;DHT22;11729;50.836;4.330;2022-07-09T12:58:46;27.40;82.40
23120;DHT22;11729;50.836;4.330;2022-07-09T13:01:13;27.40;82.30
23120;DHT22;11729;50.836;4.330;2022-07-09T13:03:38;27.20;82.10
23120;DHT22;11729;50.836;4.330;2022-07-09T13:06:05;27.90;81.30
23120;DHT22;11729;50.836;4.330;2022-07-09T13:08:50;29.00;78.90
23120;DHT22;11729;50.836;4.330;2022-07-09T13:11:16;29.20;78.40
23120;DHT22;11729;50.836;4.330;2022-07-09T13:13:41;28.80;77.30
23120;DHT22;11729;50.836;4.330;2022-07-09T13:16:07;28.30;79.50
23120;DHT22;11729;50.836;4.330;2022-07-09T13:18:33;28.60;77.10
23120;DHT22;11729;50.836;4.330;2022-07-09T13:20:58;29.30;75.60
23120;DHT22;11729;50.836;4.330;2022-07-09T13:23:24;29.80;72.80
23120;DHT22;11729;50.836;4.330;2022-07-09T13:25:49;30.50;71.80
23120;DHT22;11729;50.836;4.330;2022-07-09T13:28:15;31.00;68.80
23120;DHT22;11729;50.836;4.330;2022-07-09T13:30:41;31.80;67.90
23120;DHT22;11729;50.836;4.330;2022-07-09T13:33:06;33.30;64.40
23120;DHT22;11729;50.836;4.330;2022-07-09T13:35:32;32.80;61.60
23120;DHT22;11729;50.836;4.330;2022-07-09T13:37:57;31.20;64.00
23120;DHT22;11729;50.836;4.330;2022-07-09T13:40:23;30.10;69.60
23120;DHT22;11729;50.836;4.330;2022-07-09T13:42:48;28.80;72.60
23120;DHT22;11729;50.836;4.330;2022-07-09T13:45:14;28.50;75.40
23120;DHT22;11729;50.836;4.330;2022-07-09T13:47:40;28.00;77.00
23120;DHT22;11729;50.836;4.330;2022-07-09T13:50:06;27.10;80.60
23120;DHT22;11729;50.836;4.330;2022-07-09T13:52:32;26.40;84.80
23120;DHT22;11729;50.836;4.330;2022-07-09T13:54:58;25.90;87.10
23120;DHT22;11729;50.836;4.330;2022-07-09T13:57:23;25.60;87.70
23120;DHT22;11729;50.836;4.330;2022-07-09T13:59:49;25.40;88.60
23120;DHT22;11729;50.836;4.330;2022-07-09T14:02:14;25.40;89.10
23120;DHT22;11729;50.836;4.330;2022-07-09T14:04:40;25.00;90.30
23120;DHT22;11729;50.836;4.330;2022-07-09T14:07:05;24.60;91.10
23120;DHT22;11729;50.836;4.330;2022-07-09T14:09:31;24.70;91.80
23120;DHT22;11729;50.836;4.330;2022-07-09T14:11:57;24.50;92.10
23120;DHT22;11729;50.836;4.330;2022-07-09T14:14:22;24.50;91.40
23120;DHT22;11729;50.836;4.330;2022-07-09T14:16:48;24.40;92.10
23120;DHT22;11729;50.836;4.330;2022-07-09T14:19:13;24.40;91.20
23120;DHT22;11729;50.836;4.330;2022-07-09T14:21:39;24.20;92.30
23120;DHT22;11729;50.836;4.330;2022-07-09T14:24:05;24.30;92.60
23120;DHT22;11729;50.836;4.330;2022-07-09T14:26:31;24.50;92.70
23120;DHT22;11729;50.836;4.330;2022-07-09T14:28:56;24.80;91.80
23120;DHT22;11729;50.836;4.330;2022-07-09T14:31:23;24.90;91.30
23120;DHT22;11729;50.836;4.330;2022-07-09T14:33:50;25.00;91.10
23120;DHT22;11729;50.836;4.330;2022-07-09T14:36:15;25.10;90.40
23120;DHT22;11729;50.836;4.330;2022-07-09T14:38:41;25.10;90.70
23120;DHT22;11729;50.836;4.330;2022-07-09T14:41:07;25.10;90.20
23120;DHT22;11729;50.836;4.330;2022-07-09T14:43:32;25.10;91.20
23120;DHT22;11729;50.836;4.330;2022-07-09T14:45:58;25.00;91.10
23120;DHT22;11729;50.836;4.330;2022-07-09T14:48:24;24.80;91.60
23120;DHT22;11729;50.836;4.330;2022-07-09T14:50:49;24.80;90.10
23120;DHT22;11729;50.836;4.330;2022-07-09T14:53:15;24.90;88.70
23120;DHT22;11729;50.836;4.330;2022-07-09T14:55:41;24.80;90.10
23120;DHT22;11729;50.836;4.330;2022-07-09T14:58:06;24.80;90.40
23120;DHT22;11729;50.836;4.330;2022-07-09T15:00:32;24.80;90.10
23120;DHT22;11729;50.836;4.330;2022-07-09T15:02:58;24.80;90.00
23120;DHT22;11729;50.836;4.330;2022-07-09T15:05:23;24.80;90.00
23120;DHT22;11729;50.836;4.330;2022-07-09T15:07:49;24.80;90.70
23120;DHT22;11729;50.836;4.330;2022-07-09T15:10:15;24.70;90.60
23120;DHT22;11729;50.836;4.330;2022-07-09T15:12:40;24.60;91.10
23120;DHT22;11729;50.836;4.330;2022-07-09T15:15:06;24.60;91.30
23120;DHT22;11729;50.836;4.330;2022-07-09T15:17:32;24.70;91.10
23120;DHT22;11729;50.836;4.330;2022-07-09T15:19:58;24.80;92.40
23120;DHT22;11729;50.836;4.330;2022-07-09T15:22:23;24.80;90.80
23120;DHT22;11729;50.836;4.330;2022-07-09T15:24:49;24.80;88.50
23120;DHT22;11729;50.836;4.330;2022-07-09T15:27:14;24.80;87.10
23120;DHT22;11729;50.836;4.330;2022-07-09T15:29:41;24.70;86.70
23120;DHT22;11729;50.836;4.330;2022-07-09T15:32:07;24.30;88.10
23120;DHT22;11729;50.836;4.330;2022-07-09T15:34:33;24.20;89.70
23120;DHT22;11729;50.836;4.330;2022-07-09T15:36:58;24.30;89.30
23120;DHT22;11729;50.836;4.330;2022-07-09T15:39:26;24.20;85.90